createdAt,value
2018-12-08T00:00:16.597Z,100.00
2018-12-08T00:02:45.686Z,100.00
2018-12-08T00:05:14.813Z,100.00
2018-12-08T00:07:43.929Z,100.00
2018-12-08T00:10:13.034Z,100.00
2018-12-08T00:12:42.147Z,100.00
2018-12-08T00:15:11.278Z,100.00
2018-12-08T00:17:40.422Z,100.00
2018-12-08T00:20:09.565Z,100.00
2018-12-08T00:22:38.706Z,100.00
2018-12-08T00:25:07.825Z,100.00
2018-12-08T00:27:37.081Z,100.00
2018-12-08T00:30:15.941Z,100.00
2018-12-08T00:32:45.082Z,100.00
2018-12-08T00:35:14.214Z,100.00
2018-12-08T00:37:43.347Z,100.00
2018-12-08T00:40:12.462Z,100.00
2018-12-08T00:42:41.612Z,100.00
2018-12-08T00:45:10.737Z,100.00
2018-12-08T00:47:39.865Z,100.00
2018-12-08T00:50:08.961Z,100.00
2018-12-08T00:52:38.267Z,100.00
2018-12-08T00:55:07.442Z,100.00
2018-12-08T00:57:36.558Z,100.00
2018-12-08T01:00:06.000Z,100.00
2018-12-08T01:02:35.144Z,100.00
2018-12-08T01:05:04.258Z,100.00
2018-12-08T01:07:33.354Z,100.00
2018-12-08T01:10:02.477Z,100.00
2018-12-08T01:12:31.570Z,100.00
2018-12-08T01:15:00.651Z,100.00
2018-12-08T01:17:29.746Z,100.00
2018-12-08T01:19:58.857Z,100.00
2018-12-08T01:22:27.994Z,100.00
2018-12-08T01:24:57.102Z,100.00
2018-12-08T01:27:26.244Z,100.00
2018-12-08T01:29:55.306Z,100.00
2018-12-08T01:32:24.400Z,100.00
2018-12-08T01:34:53.507Z,100.00
2018-12-08T01:37:22.669Z,100.00
2018-12-08T01:39:51.782Z,100.00
2018-12-08T01:42:20.880Z,100.00
2018-12-08T01:44:50.001Z,100.00
2018-12-08T01:47:19.129Z,100.00
2018-12-08T01:49:48.245Z,100.00
2018-12-08T01:52:17.362Z,100.00
2018-12-08T01:54:46.446Z,100.00
2018-12-08T01:57:15.569Z,100.00
2018-12-08T01:59:44.678Z,100.00
2018-12-08T02:02:13.805Z,100.00
2018-12-08T02:04:42.916Z,100.00
2018-12-08T02:07:12.044Z,100.00
2018-12-08T02:09:41.233Z,100.00
2018-12-08T02:12:10.356Z,100.00
2018-12-08T02:14:39.459Z,100.00
2018-12-08T02:17:08.599Z,100.00
2018-12-08T02:19:37.732Z,100.00
2018-12-08T02:22:06.901Z,100.00
2018-12-08T02:24:36.321Z,100.00
2018-12-08T02:27:05.420Z,100.00
2018-12-08T02:29:34.563Z,100.00
2018-12-08T02:32:03.797Z,100.00
2018-12-08T02:34:32.933Z,100.00
2018-12-08T02:37:02.075Z,100.00
2018-12-08T02:39:31.221Z,100.00
2018-12-08T02:42:00.317Z,100.00
2018-12-08T02:44:29.465Z,100.00
2018-12-08T02:46:58.581Z,100.00
2018-12-08T02:49:27.696Z,100.00
2018-12-08T02:52:00.602Z,100.00
2018-12-08T02:54:29.706Z,100.00
2018-12-08T02:56:58.832Z,100.00
2018-12-08T02:59:27.967Z,100.00
2018-12-08T03:01:57.130Z,100.00
2018-12-08T03:04:26.250Z,100.00
2018-12-08T03:06:55.409Z,100.00
2018-12-08T03:09:24.525Z,100.00
2018-12-08T03:11:53.621Z,100.00
2018-12-08T03:14:22.736Z,100.00
2018-12-08T03:16:51.856Z,100.00
2018-12-08T03:19:20.969Z,100.00
2018-12-08T03:21:50.079Z,100.00
2018-12-08T03:24:19.247Z,100.00
2018-12-08T03:26:48.429Z,100.00
2018-12-08T03:29:17.554Z,100.00
2018-12-08T03:31:46.671Z,100.00
2018-12-08T03:34:15.810Z,100.00
2018-12-08T03:36:44.916Z,100.00
2018-12-08T03:39:14.052Z,100.00
2018-12-08T03:41:43.148Z,100.00
2018-12-08T03:44:12.249Z,100.00
2018-12-08T03:46:41.354Z,100.00
2018-12-08T03:49:10.475Z,100.00
2018-12-08T03:51:39.581Z,100.00
2018-12-08T03:54:08.680Z,100.00
2018-12-08T03:56:37.777Z,100.00
2018-12-08T03:59:07.012Z,100.00
2018-12-08T04:01:36.146Z,100.00
2018-12-08T04:04:05.247Z,100.00
2018-12-08T04:06:34.358Z,100.00
2018-12-08T04:09:04.163Z,100.00
2018-12-08T04:11:33.274Z,100.00
2018-12-08T04:14:02.403Z,100.00
2018-12-08T04:16:31.513Z,100.00
2018-12-08T04:19:00.633Z,100.00
2018-12-08T04:21:29.728Z,100.00
2018-12-08T04:23:58.856Z,100.00
2018-12-08T04:26:27.974Z,100.00
2018-12-08T04:28:57.123Z,100.00
2018-12-08T04:31:26.259Z,100.00
2018-12-08T04:33:55.386Z,100.00
2018-12-08T04:36:24.511Z,100.00
2018-12-08T04:38:53.658Z,100.00
2018-12-08T04:41:22.770Z,100.00
2018-12-08T04:43:51.915Z,100.00
2018-12-08T04:46:21.030Z,100.00
2018-12-08T04:48:50.183Z,100.00
2018-12-08T04:51:19.299Z,100.00
2018-12-08T04:53:48.447Z,100.00
2018-12-08T04:56:17.569Z,100.00
2018-12-08T04:58:46.706Z,100.00
2018-12-08T05:01:15.852Z,100.00
2018-12-08T05:03:44.988Z,100.00
2018-12-08T05:06:14.110Z,100.00
2018-12-08T05:08:43.230Z,100.00
2018-12-08T05:11:12.339Z,100.00
2018-12-08T05:13:41.441Z,100.00
2018-12-08T05:16:10.541Z,100.00
2018-12-08T05:18:39.682Z,100.00
2018-12-08T05:21:08.744Z,100.00
2018-12-08T05:23:37.860Z,100.00
2018-12-08T05:26:06.958Z,100.00
2018-12-08T05:28:36.069Z,100.00
2018-12-08T05:31:05.174Z,100.00
2018-12-08T05:33:34.336Z,100.00
2018-12-08T05:36:03.471Z,100.00
2018-12-08T05:38:32.607Z,100.00
2018-12-08T05:41:01.720Z,100.00
2018-12-08T05:43:30.824Z,100.00
2018-12-08T05:45:59.944Z,100.00
2018-12-08T05:48:29.063Z,100.00
2018-12-08T05:50:58.214Z,100.00
2018-12-08T05:53:27.309Z,100.00
2018-12-08T05:55:56.435Z,100.00
2018-12-08T05:58:25.543Z,100.00
2018-12-08T06:00:54.668Z,100.00
2018-12-08T06:03:23.802Z,100.00
2018-12-08T06:05:52.934Z,100.00
2018-12-08T06:08:22.044Z,100.00
2018-12-08T06:10:51.184Z,100.00
2018-12-08T06:13:20.308Z,100.00
2018-12-08T06:15:49.425Z,100.00
2018-12-08T06:18:18.528Z,100.00
2018-12-08T06:20:47.670Z,100.00
2018-12-08T06:23:16.769Z,100.00
2018-12-08T06:25:45.889Z,100.00
2018-12-08T06:28:21.670Z,100.00
2018-12-08T06:30:50.808Z,100.00
2018-12-08T06:33:19.929Z,100.00
2018-12-08T06:35:49.122Z,100.00
2018-12-08T06:38:18.239Z,100.00
2018-12-08T06:40:47.365Z,100.00
2018-12-08T06:43:16.454Z,100.00
2018-12-08T06:45:45.596Z,100.00
2018-12-08T06:48:14.708Z,100.00
2018-12-08T06:50:43.858Z,100.00
2018-12-08T06:53:13.000Z,100.00
2018-12-08T06:55:42.147Z,100.00
2018-12-08T06:58:11.261Z,100.00
2018-12-08T07:00:40.357Z,100.00
2018-12-08T07:03:09.433Z,100.00
2018-12-08T07:05:38.588Z,100.00
2018-12-08T07:08:07.707Z,100.00
2018-12-08T07:10:36.829Z,100.00
2018-12-08T07:13:05.907Z,100.00
2018-12-08T07:15:35.031Z,100.00
2018-12-08T07:18:04.138Z,100.00
2018-12-08T07:20:33.250Z,100.00
2018-12-08T07:23:02.340Z,100.00
2018-12-08T07:26:02.137Z,100.00
2018-12-08T07:28:31.302Z,100.00
2018-12-08T07:31:00.418Z,100.00
2018-12-08T07:33:29.545Z,99.89
2018-12-08T07:35:58.650Z,100.00
2018-12-08T07:38:27.754Z,100.00
2018-12-08T07:40:56.857Z,100.00
2018-12-08T07:43:25.960Z,99.36
2018-12-08T07:45:55.090Z,99.37
2018-12-08T07:48:24.196Z,100.00
2018-12-08T07:50:53.296Z,100.00
2018-12-08T07:53:22.433Z,100.00
2018-12-08T07:55:51.537Z,100.00
2018-12-08T07:58:20.648Z,98.40
2018-12-08T08:00:49.905Z,98.20
2018-12-08T08:03:19.022Z,96.70
2018-12-08T08:05:48.149Z,94.29
2018-12-08T08:08:17.262Z,93.32
2018-12-08T08:10:46.381Z,93.14
2018-12-08T08:13:15.500Z,90.64
2018-12-08T08:15:44.619Z,90.87
2018-12-08T08:18:13.703Z,88.96
2018-12-08T08:20:42.821Z,86.89
2018-12-08T08:23:11.916Z,84.80
2018-12-08T08:25:41.037Z,81.64
2018-12-08T08:28:10.133Z,83.35
2018-12-08T08:30:39.245Z,84.46
2018-12-08T08:33:08.348Z,83.59
2018-12-08T08:35:37.465Z,83.01
2018-12-08T08:38:06.587Z,82.29
2018-12-08T08:40:35.681Z,81.45
2018-12-08T08:43:04.857Z,79.48
2018-12-08T08:45:34.077Z,77.45
2018-12-08T08:48:03.165Z,75.51
2018-12-08T08:50:32.261Z,72.41
2018-12-08T08:53:03.437Z,69.68
2018-12-08T08:55:32.551Z,67.60
2018-12-08T08:58:01.646Z,68.53
2018-12-08T09:00:30.737Z,69.65
2018-12-08T09:02:59.853Z,70.86
2018-12-08T09:05:29.013Z,73.62
2018-12-08T09:07:58.117Z,73.74
2018-12-08T09:10:27.227Z,74.43
2018-12-08T09:12:56.348Z,74.59
2018-12-08T09:15:25.443Z,75.78
2018-12-08T09:17:54.560Z,76.58
2018-12-08T09:20:23.761Z,77.54
2018-12-08T09:22:52.862Z,77.03
2018-12-08T09:25:21.955Z,76.65
2018-12-08T09:27:51.074Z,73.98
2018-12-08T09:30:20.133Z,70.87
2018-12-08T09:32:49.257Z,68.33
2018-12-08T09:35:18.345Z,62.60
2018-12-08T09:37:47.453Z,62.59
2018-12-08T09:40:16.576Z,60.79
2018-12-08T09:42:45.680Z,64.15
2018-12-08T09:45:14.755Z,64.83
2018-12-08T09:47:43.855Z,65.31
2018-12-08T09:50:12.965Z,66.50
2018-12-08T09:52:42.077Z,67.13
2018-12-08T09:55:11.201Z,66.41
2018-12-08T09:57:40.335Z,65.29
2018-12-08T10:00:09.444Z,64.62
2018-12-08T10:02:38.557Z,61.02
2018-12-08T10:05:07.638Z,60.85
2018-12-08T10:07:36.770Z,60.12
2018-12-08T10:10:06.410Z,60.52
2018-12-08T10:12:35.514Z,61.32
2018-12-08T10:15:04.633Z,60.21
2018-12-08T10:17:33.775Z,60.95
2018-12-08T10:20:03.043Z,59.67
2018-12-08T10:22:32.142Z,59.14
2018-12-08T10:25:01.274Z,58.25
2018-12-08T10:27:30.442Z,59.08
2018-12-08T10:29:59.553Z,59.87
2018-12-08T10:32:28.633Z,58.18
2018-12-08T10:34:57.826Z,57.24
2018-12-08T10:37:26.949Z,59.17
2018-12-08T10:39:56.045Z,56.99
2018-12-08T10:42:25.129Z,57.57
2018-12-08T10:44:54.248Z,58.61
2018-12-08T10:47:23.349Z,56.45
2018-12-08T10:49:52.433Z,56.83
2018-12-08T10:52:21.563Z,55.95
2018-12-08T10:54:50.637Z,54.53
2018-12-08T10:57:19.744Z,57.01
2018-12-08T10:59:48.837Z,57.21
2018-12-08T11:02:23.023Z,57.03
2018-12-08T11:04:52.129Z,57.24
2018-12-08T11:07:21.244Z,59.48
2018-12-08T11:09:50.371Z,59.28
2018-12-08T11:12:19.476Z,58.76
2018-12-08T11:14:48.605Z,58.73
2018-12-08T11:17:17.724Z,59.11
2018-12-08T11:19:46.854Z,60.43
2018-12-08T11:22:15.933Z,60.40
2018-12-08T11:24:45.007Z,61.23
2018-12-08T11:27:14.107Z,60.55
2018-12-08T11:29:43.188Z,60.69
2018-12-08T11:32:12.289Z,59.19
2018-12-08T11:34:41.396Z,58.72
2018-12-08T11:37:10.499Z,59.38
2018-12-08T11:39:39.610Z,59.56
2018-12-08T11:42:08.729Z,58.86
2018-12-08T11:44:37.993Z,59.47
2018-12-08T11:47:07.128Z,59.04
2018-12-08T11:49:36.225Z,62.47
2018-12-08T11:52:05.339Z,63.68
2018-12-08T11:54:34.445Z,65.67
2018-12-08T11:57:03.672Z,66.69
2018-12-08T11:59:32.791Z,67.12
2018-12-08T12:02:01.934Z,67.22
2018-12-08T12:04:31.039Z,67.57
2018-12-08T12:07:00.182Z,68.51
2018-12-08T12:09:29.298Z,68.60
2018-12-08T12:11:58.397Z,69.54
2018-12-08T12:14:41.556Z,69.53
2018-12-08T12:17:10.730Z,69.55
2018-12-08T12:19:39.845Z,69.93
2018-12-08T12:22:08.936Z,70.11
2018-12-08T12:24:38.049Z,70.13
2018-12-08T12:27:07.174Z,70.73
2018-12-08T12:29:36.260Z,71.58
2018-12-08T12:32:05.349Z,71.97
2018-12-08T12:34:34.553Z,71.63
2018-12-08T12:37:03.636Z,71.68
2018-12-08T12:39:32.769Z,71.66
2018-12-08T12:42:01.857Z,71.50
2018-12-08T12:44:30.974Z,71.64
2018-12-08T12:47:00.101Z,72.13
2018-12-08T12:49:29.209Z,73.06
2018-12-08T12:51:58.324Z,73.87
2018-12-08T12:54:27.449Z,74.05
2018-12-08T12:56:56.558Z,75.16
2018-12-08T12:59:25.683Z,75.03
2018-12-08T13:01:55.251Z,75.02
2018-12-08T13:04:24.383Z,75.93
2018-12-08T13:06:53.505Z,76.20
2018-12-08T13:09:22.614Z,76.23
2018-12-08T13:11:51.966Z,77.16
2018-12-08T13:14:21.048Z,77.60
2018-12-08T13:16:50.185Z,77.55
2018-12-08T13:19:19.260Z,78.36
2018-12-08T13:21:48.384Z,78.02
2018-12-08T13:24:17.521Z,78.29
2018-12-08T13:26:46.606Z,78.71
2018-12-08T13:29:15.709Z,79.19
2018-12-08T13:31:45.265Z,79.92
2018-12-08T13:34:26.923Z,80.14
2018-12-08T13:36:56.039Z,82.04
2018-12-08T13:39:25.168Z,82.91
2018-12-08T13:41:54.268Z,83.02
2018-12-08T13:44:42.058Z,83.42
2018-12-08T13:47:11.160Z,84.31
2018-12-08T13:49:40.306Z,84.81
2018-12-08T13:52:09.425Z,85.66
2018-12-08T13:57:28.913Z,86.92
2018-12-08T13:59:58.568Z,87.78
2018-12-08T14:02:28.333Z,89.52
2018-12-08T14:04:59.067Z,90.25
2018-12-08T14:07:28.179Z,89.88
2018-12-08T14:09:57.308Z,92.09
2018-12-08T14:12:26.435Z,92.93
2018-12-08T14:14:55.593Z,94.75
2018-12-08T14:17:24.955Z,95.62
2018-12-08T14:19:54.092Z,96.07
2018-12-08T14:22:23.183Z,96.71
2018-12-08T14:24:52.296Z,97.22
2018-12-08T14:27:21.401Z,97.78
2018-12-08T14:29:50.521Z,97.39
2018-12-08T14:32:19.659Z,96.97
2018-12-08T14:34:48.763Z,97.77
2018-12-08T14:37:17.865Z,98.62
2018-12-08T14:39:47.006Z,98.78
2018-12-08T14:42:16.114Z,99.94
2018-12-08T14:44:47.188Z,100.00
2018-12-08T14:47:16.283Z,100.00
2018-12-08T14:49:46.582Z,100.00
2018-12-08T14:52:15.689Z,100.00
2018-12-08T14:54:44.889Z,100.00
2018-12-08T14:57:14.596Z,100.00
2018-12-08T14:59:43.714Z,100.00
2018-12-08T15:02:12.818Z,99.60
2018-12-08T15:04:41.949Z,100.00
2018-12-08T15:07:11.092Z,100.00
2018-12-08T15:09:40.193Z,100.00
2018-12-08T15:12:09.327Z,98.85
2018-12-08T15:14:38.434Z,98.59
2018-12-08T15:17:07.080Z,98.70
2018-12-08T15:19:36.188Z,97.78
2018-12-08T15:22:05.301Z,97.44
2018-12-08T15:24:34.412Z,97.49
2018-12-08T15:27:03.561Z,97.32
2018-12-08T15:29:32.682Z,97.67
2018-12-08T15:32:01.809Z,98.84
2018-12-08T15:34:30.920Z,99.16
2018-12-08T15:37:00.142Z,99.40
2018-12-08T15:39:29.264Z,100.00
2018-12-08T15:41:58.382Z,100.00
2018-12-08T15:44:27.506Z,100.00
2018-12-08T15:46:56.637Z,100.00
2018-12-08T15:49:25.778Z,100.00
2018-12-08T15:51:58.005Z,100.00
2018-12-08T15:54:27.145Z,100.00
2018-12-08T15:56:56.266Z,100.00
2018-12-08T15:59:25.403Z,100.00
2018-12-08T16:01:54.613Z,100.00
2018-12-08T16:04:23.725Z,100.00
2018-12-08T16:06:52.849Z,100.00
2018-12-08T16:09:22.008Z,100.00
2018-12-08T16:11:51.130Z,100.00
2018-12-08T16:14:20.260Z,100.00
2018-12-08T16:16:49.448Z,100.00
2018-12-08T16:19:18.598Z,100.00
2018-12-08T16:21:48.117Z,100.00
2018-12-08T16:24:17.228Z,100.00
2018-12-08T16:26:46.331Z,100.00
2018-12-08T16:29:15.426Z,100.00
2018-12-08T16:31:44.555Z,100.00
2018-12-08T16:34:13.686Z,100.00
2018-12-08T16:36:42.834Z,100.00
2018-12-08T16:39:11.976Z,100.00
2018-12-08T16:41:41.114Z,100.00
2018-12-08T16:44:10.232Z,100.00
2018-12-08T16:46:39.361Z,100.00
2018-12-08T16:49:08.447Z,100.00
2018-12-08T16:51:37.536Z,100.00
2018-12-08T16:54:06.673Z,100.00
2018-12-08T16:56:35.812Z,100.00
2018-12-08T16:59:04.952Z,100.00
2018-12-08T17:01:34.091Z,100.00
2018-12-08T17:04:03.242Z,100.00
2018-12-08T17:06:32.359Z,100.00
2018-12-08T17:09:01.504Z,100.00
2018-12-08T17:11:30.679Z,100.00
2018-12-08T17:13:59.799Z,100.00
2018-12-08T17:16:28.932Z,100.00
2018-12-08T17:18:58.060Z,100.00
2018-12-08T17:21:27.188Z,100.00
2018-12-08T17:23:56.313Z,100.00
2018-12-08T17:26:25.421Z,100.00
2018-12-08T17:28:54.563Z,100.00
2018-12-08T17:31:23.713Z,100.00
2018-12-08T17:33:52.819Z,100.00
2018-12-08T17:36:21.983Z,100.00
2018-12-08T17:38:51.125Z,100.00
2018-12-08T17:41:20.307Z,100.00
2018-12-08T17:43:49.425Z,100.00
2018-12-08T17:46:18.591Z,100.00
2018-12-08T17:48:47.734Z,100.00
2018-12-08T17:51:16.910Z,100.00
2018-12-08T17:53:46.021Z,100.00
2018-12-08T17:56:15.165Z,100.00
2018-12-08T17:58:44.327Z,100.00
2018-12-08T18:01:13.493Z,100.00
2018-12-08T18:03:42.625Z,100.00
2018-12-08T18:06:11.777Z,100.00
2018-12-08T18:08:40.907Z,100.00
2018-12-08T18:11:10.059Z,100.00
2018-12-08T18:13:39.181Z,100.00
2018-12-08T18:16:08.309Z,100.00
2018-12-08T18:18:37.473Z,100.00
2018-12-08T18:21:06.576Z,100.00
2018-12-08T18:23:35.806Z,100.00
2018-12-08T18:26:04.938Z,100.00
2018-12-08T18:28:34.084Z,100.00
2018-12-08T18:31:04.162Z,100.00
2018-12-08T18:33:33.292Z,100.00
2018-12-08T18:36:02.461Z,100.00
2018-12-08T18:38:31.601Z,100.00
2018-12-08T18:41:00.749Z,100.00
2018-12-08T18:43:29.929Z,100.00
2018-12-08T18:45:59.070Z,100.00
2018-12-08T18:48:28.287Z,100.00
2018-12-08T18:50:57.413Z,100.00
2018-12-08T18:53:26.829Z,100.00
2018-12-08T18:55:55.940Z,100.00
2018-12-08T18:58:25.071Z,100.00
2018-12-08T19:00:54.509Z,100.00
2018-12-08T19:03:23.784Z,100.00
2018-12-08T19:05:52.920Z,100.00
2018-12-08T19:08:22.030Z,100.00
2018-12-08T19:10:51.305Z,100.00
2018-12-08T19:13:20.427Z,100.00
2018-12-08T19:15:49.553Z,100.00
2018-12-08T19:18:18.656Z,100.00
2018-12-08T19:20:47.784Z,100.00
2018-12-08T19:23:16.886Z,100.00
2018-12-08T19:25:46.005Z,100.00
2018-12-08T19:28:15.149Z,100.00
2018-12-08T19:30:44.273Z,100.00
2018-12-08T19:33:14.598Z,100.00
2018-12-08T19:35:44.075Z,100.00
2018-12-08T19:38:13.265Z,100.00
2018-12-08T19:40:42.413Z,100.00
2018-12-08T19:43:11.550Z,100.00
2018-12-08T19:45:40.660Z,100.00
2018-12-08T19:48:09.771Z,100.00
2018-12-08T19:50:38.993Z,100.00
2018-12-08T19:53:08.125Z,100.00
2018-12-08T19:55:37.553Z,100.00
2018-12-08T19:58:07.761Z,100.00
2018-12-08T20:00:36.926Z,100.00
2018-12-08T20:03:06.078Z,100.00
2018-12-08T20:05:35.176Z,100.00
2018-12-08T20:08:05.100Z,100.00
2018-12-08T20:10:34.716Z,100.00
2018-12-08T20:13:04.876Z,100.00
2018-12-08T20:15:34.016Z,100.00
2018-12-08T20:18:05.865Z,100.00
2018-12-08T20:20:34.962Z,100.00
2018-12-08T20:23:04.078Z,100.00
2018-12-08T20:25:33.206Z,100.00
2018-12-08T20:28:02.329Z,100.00
2018-12-08T20:30:31.445Z,100.00
2018-12-08T20:33:00.557Z,100.00
2018-12-08T20:35:29.650Z,100.00
2018-12-08T20:37:58.734Z,100.00
2018-12-08T20:40:27.826Z,100.00
2018-12-08T20:42:56.930Z,100.00
2018-12-08T20:45:26.023Z,100.00
2018-12-08T20:47:55.113Z,100.00
2018-12-08T20:50:24.209Z,100.00
2018-12-08T20:52:53.314Z,100.00
2018-12-08T20:55:24.512Z,100.00
2018-12-08T20:57:53.617Z,100.00
2018-12-08T21:00:22.740Z,100.00
2018-12-08T21:02:51.884Z,100.00
2018-12-08T21:05:21.136Z,100.00
2018-12-08T21:07:50.251Z,100.00
2018-12-08T21:10:19.373Z,100.00
2018-12-08T21:12:48.489Z,100.00
2018-12-08T21:15:17.609Z,100.00
2018-12-08T21:17:46.723Z,100.00
2018-12-08T21:20:15.849Z,100.00
2018-12-08T21:22:44.960Z,100.00
2018-12-08T21:25:14.116Z,100.00
2018-12-08T21:27:43.206Z,100.00
2018-12-08T21:30:12.307Z,100.00
2018-12-08T21:32:41.444Z,100.00
2018-12-08T21:35:10.577Z,100.00
2018-12-08T21:37:39.693Z,100.00
2018-12-08T21:40:14.245Z,100.00
2018-12-08T21:42:43.352Z,100.00
2018-12-08T21:45:12.475Z,100.00
2018-12-08T21:47:41.554Z,100.00
2018-12-08T21:50:10.667Z,100.00
2018-12-08T21:52:39.780Z,100.00
2018-12-08T21:55:08.869Z,100.00
2018-12-08T21:57:37.983Z,100.00
2018-12-08T22:00:07.497Z,100.00
2018-12-08T22:02:36.631Z,100.00
2018-12-08T22:05:06.041Z,100.00
2018-12-08T22:07:35.145Z,100.00
2018-12-08T22:10:04.390Z,100.00
2018-12-08T22:12:33.489Z,100.00
2018-12-08T22:15:06.606Z,100.00
2018-12-08T22:17:35.749Z,100.00
2018-12-08T22:20:05.168Z,100.00
2018-12-08T22:22:34.273Z,100.00
2018-12-08T22:25:03.381Z,100.00
2018-12-08T22:27:32.481Z,100.00
2018-12-08T22:30:01.592Z,100.00
2018-12-08T22:32:30.733Z,100.00
2018-12-08T22:34:59.849Z,100.00
2018-12-08T22:37:29.155Z,100.00
2018-12-08T22:39:58.323Z,100.00
2018-12-08T22:42:27.461Z,100.00
2018-12-08T22:44:56.535Z,100.00
2018-12-08T22:47:25.628Z,100.00
2018-12-08T22:49:54.744Z,100.00
2018-12-08T22:52:23.885Z,100.00
2018-12-08T22:54:52.969Z,100.00
2018-12-08T22:57:22.065Z,100.00
2018-12-08T22:59:51.180Z,100.00
2018-12-08T23:02:20.310Z,100.00
2018-12-08T23:04:49.425Z,100.00
2018-12-08T23:07:18.590Z,100.00
2018-12-08T23:09:47.681Z,100.00
2018-12-08T23:12:16.778Z,100.00
2018-12-08T23:14:45.896Z,100.00
2018-12-08T23:17:15.009Z,100.00
2018-12-08T23:19:44.134Z,100.00
2018-12-08T23:22:13.224Z,100.00
2018-12-08T23:24:42.345Z,100.00
2018-12-08T23:27:11.451Z,100.00
2018-12-08T23:29:40.565Z,100.00
2018-12-08T23:32:09.676Z,100.00
2018-12-08T23:34:38.811Z,100.00
2018-12-08T23:37:07.872Z,100.00
2018-12-08T23:39:39.181Z,100.00
2018-12-08T23:42:08.093Z,100.00
2018-12-08T23:44:37.226Z,100.00
2018-12-08T23:47:06.308Z,100.00
2018-12-08T23:49:35.424Z,100.00
2018-12-08T23:52:04.510Z,100.00
2018-12-08T23:54:33.642Z,100.00
2018-12-08T23:57:02.737Z,100.00
2018-12-08T23:59:31.860Z,100.00
